sensor_id;sensor_type;location;lat;lon;timestamp;pressure;altitude;pressure_sealevel;temperature;humidity
6134;BME280;3098;42.678;23.364;2022-12-19T00:01:17;96652.78;;;0.23;100.00
6134;BME280;3098;42.678;23.364;2022-12-19T00:03:46;96655.00;;;0.26;100.00
6134;BME280;3098;42.678;23.364;2022-12-19T00:06:16;96387.56;;;-1.34;100.00
6134;BME280;3098;42.678;23.364;2022-12-19T00:08:45;96659.81;;;0.16;100.00
6134;BME280;3098;42.678;23.364;2022-12-19T00:11:14;96616.44;;;-0.05;100.00
6134;BME280;3098;42.678;23.364;2022-12-19T00:13:42;96649.41;;;0.23;100.00
6134;BME280;3098;42.678;23.364;2022-12-19T00:16:13;96643.56;;;0.27;100.00
6134;BME280;3098;42.678;23.364;2022-12-19T00:18:42;96548.19;;;-0.47;100.00
6134;BME280;3098;42.678;23.364;2022-12-19T00:21:11;96655.81;;;0.27;100.00
6134;BME280;3098;42.678;23.364;2022-12-19T00:23:43;96658.00;;;0.43;100.00
6134;BME280;3098;42.678;23.364;2022-12-19T00:26:14;96637.94;;;0.11;100.00
6134;BME280;3098;42.678;23.364;2022-12-19T00:28:43;96652.59;;;0.44;100.00
6134;BME280;3098;42.678;23.364;2022-12-19T00:31:13;96614.44;;;0.17;100.00
6134;BME280;3098;42.678;23.364;2022-12-19T00:33:41;96608.44;;;0.10;100.00
6134;BME280;3098;42.678;23.364;2022-12-19T00:36:10;96642.56;;;0.41;100.00
6134;BME280;3098;42.678;23.364;2022-12-19T00:38:39;96668.03;;;0.46;100.00
6134;BME280;3098;42.678;23.364;2022-12-19T00:41:07;96632.94;;;0.22;100.00
6134;BME280;3098;42.678;23.364;2022-12-19T00:43:34;96665.06;;;0.42;100.00
6134;BME280;3098;42.678;23.364;2022-12-19T00:46:02;96666.84;;;0.35;100.00
6134;BME280;3098;42.678;23.364;2022-12-19T00:48:31;96666.47;;;0.25;100.00
6134;BME280;3098;42.678;23.364;2022-12-19T00:50:59;96641.75;;;0.15;100.00
6134;BME280;3098;42.678;23.364;2022-12-19T00:53:25;96633.31;;;0.19;100.00
6134;BME280;3098;42.678;23.364;2022-12-19T00:55:53;96673.47;;;0.31;100.00
6134;BME280;3098;42.678;23.364;2022-12-19T00:58:20;96669.84;;;0.32;100.00
6134;BME280;3098;42.678;23.364;2022-12-19T01:00:48;96635.31;;;0.04;100.00
6134;BME280;3098;42.678;23.364;2022-12-19T01:03:16;96656.63;;;0.14;100.00
6134;BME280;3098;42.678;23.364;2022-12-19T01:05:45;96647.38;;;0.25;100.00
6134;BME280;3098;42.678;23.364;2022-12-19T01:08:13;96650.97;;;0.17;100.00
6134;BME280;3098;42.678;23.364;2022-12-19T01:10:44;96682.09;;;0.38;100.00
6134;BME280;3098;42.678;23.364;2022-12-19T01:13:13;96673.88;;;0.48;100.00
6134;BME280;3098;42.678;23.364;2022-12-19T01:15:40;96667.66;;;0.36;100.00
6134;BME280;3098;42.678;23.364;2022-12-19T01:18:12;96581.72;;;-0.31;100.00
6134;BME280;3098;42.678;23.364;2022-12-19T01:20:40;96677.47;;;0.40;100.00
6134;BME280;3098;42.678;23.364;2022-12-19T01:23:10;96684.50;;;0.40;100.00
6134;BME280;3098;42.678;23.364;2022-12-19T01:25:38;96685.72;;;0.31;100.00
6134;BME280;3098;42.678;23.364;2022-12-19T01:28:06;96687.34;;;0.38;100.00
6134;BME280;3098;42.678;23.364;2022-12-19T01:30:34;96688.13;;;0.32;100.00
6134;BME280;3098;42.678;23.364;2022-12-19T01:33:01;96680.31;;;0.19;100.00
6134;BME280;3098;42.678;23.364;2022-12-19T01:35:28;96683.91;;;0.38;100.00
6134;BME280;3098;42.678;23.364;2022-12-19T01:37:56;96616.22;;;-0.16;100.00
6134;BME280;3098;42.678;23.364;2022-12-19T01:40:25;96682.31;;;0.30;100.00
6134;BME280;3098;42.678;23.364;2022-12-19T01:42:52;96689.13;;;0.25;100.00
6134;BME280;3098;42.678;23.364;2022-12-19T01:45:28;96682.31;;;0.30;100.00
6134;BME280;3098;42.678;23.364;2022-12-19T01:48:01;96679.69;;;0.24;100.00
6134;BME280;3098;42.678;23.364;2022-12-19T01:50:34;96658.78;;;0.04;100.00
6134;BME280;3098;42.678;23.364;2022-12-19T01:53:05;96684.91;;;0.24;100.00
6134;BME280;3098;42.678;23.364;2022-12-19T01:55:35;96658.00;;;0.10;100.00
6134;BME280;3098;42.678;23.364;2022-12-19T01:58:04;96678.69;;;0.18;100.00
6134;BME280;3098;42.678;23.364;2022-12-19T02:00:32;96676.69;;;0.27;100.00
6134;BME280;3098;42.678;23.364;2022-12-19T02:03:04;96671.88;;;0.30;100.00
6134;BME280;3098;42.678;23.364;2022-12-19T02:05:34;96666.25;;;0.33;100.00
6134;BME280;3098;42.678;23.364;2022-12-19T02:08:02;96677.28;;;0.29;100.00
6134;BME280;3098;42.678;23.364;2022-12-19T02:10:29;96662.63;;;0.08;100.00
6134;BME280;3098;42.678;23.364;2022-12-19T02:12:58;96631.91;;;-0.10;100.00
6134;BME280;3098;42.678;23.364;2022-12-19T02:15:29;96626.47;;;-0.08;100.00
6134;BME280;3098;42.678;23.364;2022-12-19T02:18:05;96627.69;;;-0.17;100.00
6134;BME280;3098;42.678;23.364;2022-12-19T02:23:46;96621.06;;;-0.07;100.00
6134;BME280;3098;42.678;23.364;2022-12-19T02:26:39;96656.59;;;0.21;100.00
6134;BME280;3098;42.678;23.364;2022-12-19T02:29:22;96685.72;;;0.24;100.00
6134;BME280;3098;42.678;23.364;2022-12-19T02:31:57;96686.53;;;0.25;100.00
6134;BME280;3098;42.678;23.364;2022-12-19T02:34:32;96665.22;;;0.15;100.00
6134;BME280;3098;42.678;23.364;2022-12-19T02:37:06;96686.91;;;0.35;100.00
6134;BME280;3098;42.678;23.364;2022-12-19T02:39:40;96691.53;;;0.33;100.00
6134;BME280;3098;42.678;23.364;2022-12-19T02:42:10;96683.91;;;0.38;100.00
6134;BME280;3098;42.678;23.364;2022-12-19T02:44:43;96632.47;;;-0.14;100.00
6134;BME280;3098;42.678;23.364;2022-12-19T02:47:13;96664.00;;;-0.09;100.00
6134;BME280;3098;42.678;23.364;2022-12-19T02:49:41;96657.97;;;-0.10;100.00
6134;BME280;3098;42.678;23.364;2022-12-19T02:52:09;96684.69;;;0.06;100.00
6134;BME280;3098;42.678;23.364;2022-12-19T02:54:37;96635.47;;;-0.24;100.00
6134;BME280;3098;42.678;23.364;2022-12-19T02:57:11;96615.63;;;-0.31;100.00
6134;BME280;3098;42.678;23.364;2022-12-19T02:59:54;96639.13;;;-0.05;100.00
6134;BME280;3098;42.678;23.364;2022-12-19T03:02:30;96681.28;;;0.18;100.00
6134;BME280;3098;42.678;23.364;2022-12-19T03:05:10;96535.34;;;-0.69;100.00
6134;BME280;3098;42.678;23.364;2022-12-19T03:07:45;96578.69;;;-0.41;100.00
6134;BME280;3098;42.678;23.364;2022-12-19T03:10:17;96662.22;;;0.11;100.00
6134;BME280;3098;42.678;23.364;2022-12-19T03:12:50;96615.44;;;-0.10;100.00
6134;BME280;3098;42.678;23.364;2022-12-19T03:15:20;96570.28;;;-0.43;100.00
6134;BME280;3098;42.678;23.364;2022-12-19T03:17:50;96592.38;;;-0.26;100.00
6134;BME280;3098;42.678;23.364;2022-12-19T03:20:22;96675.06;;;0.19;100.00
6134;BME280;3098;42.678;23.364;2022-12-19T03:22:52;96640.72;;;-0.04;100.00
6134;BME280;3098;42.678;23.364;2022-12-19T03:25:21;96669.88;;;0.19;100.00
6134;BME280;3098;42.678;23.364;2022-12-19T03:27:49;96675.47;;;0.29;100.00
6134;BME280;3098;42.678;23.364;2022-12-19T03:30:18;96670.66;;;0.20;100.00
6134;BME280;3098;42.678;23.364;2022-12-19T03:32:47;96567.84;;;-0.51;100.00
6134;BME280;3098;42.678;23.364;2022-12-19T03:35:18;96682.28;;;0.17;100.00
6134;BME280;3098;42.678;23.364;2022-12-19T03:37:51;96689.94;;;0.25;100.00
6134;BME280;3098;42.678;23.364;2022-12-19T03:40:22;96581.69;;;-0.57;100.00
6134;BME280;3098;42.678;23.364;2022-12-19T03:42:54;96587.72;;;-0.44;100.00
6134;BME280;3098;42.678;23.364;2022-12-19T03:45:44;96687.53;;;0.30;100.00
6134;BME280;3098;42.678;23.364;2022-12-19T03:48:16;96660.22;;;0.00;100.00
6134;BME280;3098;42.678;23.364;2022-12-19T03:50:54;96670.03;;;-0.02;100.00
6134;BME280;3098;42.678;23.364;2022-12-19T03:53:31;96696.34;;;0.16;100.00
6134;BME280;3098;42.678;23.364;2022-12-19T03:56:09;96700.16;;;0.07;100.00
6134;BME280;3098;42.678;23.364;2022-12-19T03:58:41;96626.41;;;-0.54;100.00
6134;BME280;3098;42.678;23.364;2022-12-19T04:01:19;96688.25;;;-0.15;100.00
6134;BME280;3098;42.678;23.364;2022-12-19T04:03:50;96709.31;;;-0.17;100.00
6134;BME280;3098;42.678;23.364;2022-12-19T04:06:19;96694.41;;;-0.36;100.00
6134;BME280;3098;42.678;23.364;2022-12-19T04:08:47;96696.44;;;-0.31;100.00
6134;BME280;3098;42.678;23.364;2022-12-19T04:11:18;96719.53;;;-0.22;100.00
6134;BME280;3098;42.678;23.364;2022-12-19T04:13:49;96672.50;;;-0.54;100.00
6134;BME280;3098;42.678;23.364;2022-12-19T04:16:22;96608.38;;;-1.03;100.00
6134;BME280;3098;42.678;23.364;2022-12-19T04:19:05;96657.34;;;-0.79;100.00
6134;BME280;3098;42.678;23.364;2022-12-19T04:21:41;96679.66;;;-0.70;100.00
6134;BME280;3098;42.678;23.364;2022-12-19T04:24:11;96697.38;;;-0.52;100.00
6134;BME280;3098;42.678;23.364;2022-12-19T04:26:44;96526.09;;;-1.73;100.00
6134;BME280;3098;42.678;23.364;2022-12-19T04:29:14;96727.22;;;-0.54;100.00
6134;BME280;3098;42.678;23.364;2022-12-19T04:31:50;96698.53;;;-0.61;100.00
6134;BME280;3098;42.678;23.364;2022-12-19T04:34:25;96723.69;;;-0.40;100.00
6134;BME280;3098;42.678;23.364;2022-12-19T04:36:54;96727.31;;;-0.35;100.00
6134;BME280;3098;42.678;23.364;2022-12-19T04:39:21;96657.59;;;-0.67;100.00
6134;BME280;3098;42.678;23.364;2022-12-19T04:41:48;96692.72;;;-0.57;100.00
6134;BME280;3098;42.678;23.364;2022-12-19T04:44:17;96730.56;;;-0.26;100.00
6134;BME280;3098;42.678;23.364;2022-12-19T04:46:46;96722.72;;;-0.26;100.00
6134;BME280;3098;42.678;23.364;2022-12-19T04:49:14;96707.41;;;-0.42;100.00
6134;BME280;3098;42.678;23.364;2022-12-19T04:51:42;96739.38;;;-0.27;100.00
6134;BME280;3098;42.678;23.364;2022-12-19T04:54:12;96688.94;;;-0.54;100.00
6134;BME280;3098;42.678;23.364;2022-12-19T04:56:38;96707.03;;;-0.39;100.00
6134;BME280;3098;42.678;23.364;2022-12-19T04:59:06;96715.47;;;-0.37;100.00
6134;BME280;3098;42.678;23.364;2022-12-19T05:01:33;96743.59;;;-0.26;100.00
6134;BME280;3098;42.678;23.364;2022-12-19T05:04:02;96747.63;;;-0.24;100.00
6134;BME280;3098;42.678;23.364;2022-12-19T05:06:30;96742.31;;;-0.37;100.00
6134;BME280;3098;42.678;23.364;2022-12-19T05:08:59;96721.44;;;-0.50;100.00
6134;BME280;3098;42.678;23.364;2022-12-19T05:11:28;96749.13;;;-0.42;100.00
6134;BME280;3098;42.678;23.364;2022-12-19T05:13:57;96715.97;;;-0.62;100.00
6134;BME280;3098;42.678;23.364;2022-12-19T05:16:24;96749.53;;;-0.39;100.00
6134;BME280;3098;42.678;23.364;2022-12-19T05:18:52;96745.91;;;-0.44;100.00
6134;BME280;3098;42.678;23.364;2022-12-19T05:21:20;96708.69;;;-0.73;100.00
6134;BME280;3098;42.678;23.364;2022-12-19T05:23:48;96732.44;;;-0.54;100.00
6134;BME280;3098;42.678;23.364;2022-12-19T05:26:16;96749.75;;;-0.40;100.00
6134;BME280;3098;42.678;23.364;2022-12-19T05:28:45;96656.22;;;-1.04;100.00
6134;BME280;3098;42.678;23.364;2022-12-19T05:31:15;96720.75;;;-0.65;100.00
6134;BME280;3098;42.678;23.364;2022-12-19T05:33:45;96753.50;;;-0.49;100.00
6134;BME280;3098;42.678;23.364;2022-12-19T05:36:14;96726.97;;;-0.66;100.00
6134;BME280;3098;42.678;23.364;2022-12-19T05:38:41;96755.53;;;-0.51;100.00
6134;BME280;3098;42.678;23.364;2022-12-19T05:41:10;96759.50;;;-0.55;100.00
6134;BME280;3098;42.678;23.364;2022-12-19T05:43:39;96730.38;;;-0.66;100.00
6134;BME280;3098;42.678;23.364;2022-12-19T05:46:08;96736.47;;;-0.52;100.00
6134;BME280;3098;42.678;23.364;2022-12-19T05:48:36;96756.97;;;-0.36;100.00
6134;BME280;3098;42.678;23.364;2022-12-19T05:51:03;96755.56;;;-0.38;100.00
6134;BME280;3098;42.678;23.364;2022-12-19T05:53:33;96758.00;;;-0.30;100.00
6134;BME280;3098;42.678;23.364;2022-12-19T05:56:03;96739.78;;;-0.24;100.00
6134;BME280;3098;42.678;23.364;2022-12-19T05:58:32;96759.25;;;-0.20;100.00
6134;BME280;3098;42.678;23.364;2022-12-19T06:01:01;96772.28;;;-0.20;100.00
6134;BME280;3098;42.678;23.364;2022-12-19T06:03:30;96759.72;;;-0.03;100.00
6134;BME280;3098;42.678;23.364;2022-12-19T06:06:03;96758.88;;;-0.10;100.00
6134;BME280;3098;42.678;23.364;2022-12-19T06:08:31;96770.56;;;-0.06;100.00
6134;BME280;3098;42.678;23.364;2022-12-19T06:10:59;96767.31;;;-0.08;100.00
6134;BME280;3098;42.678;23.364;2022-12-19T06:13:28;96761.75;;;0.02;100.00
6134;BME280;3098;42.678;23.364;2022-12-19T06:15:57;96759.94;;;0.02;100.00
6134;BME280;3098;42.678;23.364;2022-12-19T06:18:24;96698.56;;;-0.48;100.00
6134;BME280;3098;42.678;23.364;2022-12-19T06:20:57;96699.38;;;-0.47;100.00
6134;BME280;3098;42.678;23.364;2022-12-19T06:23:26;96731.13;;;-0.31;100.00
6134;BME280;3098;42.678;23.364;2022-12-19T06:25:55;96750.03;;;-0.16;100.00
6134;BME280;3098;42.678;23.364;2022-12-19T06:28:23;96683.19;;;-0.43;100.00
6134;BME280;3098;42.678;23.364;2022-12-19T06:30:51;96769.34;;;0.03;100.00
6134;BME280;3098;42.678;23.364;2022-12-19T06:33:18;96778.03;;;0.10;100.00
6134;BME280;3098;42.678;23.364;2022-12-19T06:35:46;96762.75;;;0.07;100.00
6134;BME280;3098;42.678;23.364;2022-12-19T06:38:15;96785.50;;;0.20;100.00
6134;BME280;3098;42.678;23.364;2022-12-19T06:40:42;96756.31;;;-0.04;100.00
6134;BME280;3098;42.678;23.364;2022-12-19T06:43:27;96792.75;;;0.31;100.00
6134;BME280;3098;42.678;23.364;2022-12-19T06:45:56;96792.50;;;0.26;100.00
6134;BME280;3098;42.678;23.364;2022-12-19T06:48:23;96751.84;;;-0.16;100.00
6134;BME280;3098;42.678;23.364;2022-12-19T06:50:53;96802.31;;;0.11;100.00
6134;BME280;3098;42.678;23.364;2022-12-19T06:53:21;96802.56;;;0.22;100.00
6134;BME280;3098;42.678;23.364;2022-12-19T06:55:49;96724.81;;;-0.09;100.00
6134;BME280;3098;42.678;23.364;2022-12-19T06:58:18;96776.28;;;0.30;100.00
6134;BME280;3098;42.678;23.364;2022-12-19T07:00:48;96785.47;;;0.26;100.00
6134;BME280;3098;42.678;23.364;2022-12-19T07:03:18;96798.78;;;0.44;100.00
6134;BME280;3098;42.678;23.364;2022-12-19T07:05:48;96790.56;;;0.54;100.00
6134;BME280;3098;42.678;23.364;2022-12-19T07:08:18;96794.00;;;0.68;100.00
6134;BME280;3098;42.678;23.364;2022-12-19T07:10:48;96785.94;;;0.63;100.00
6134;BME280;3098;42.678;23.364;2022-12-19T07:13:18;96825.56;;;0.86;100.00
6134;BME280;3098;42.678;23.364;2022-12-19T07:15:51;96822.75;;;0.81;100.00
6134;BME280;3098;42.678;23.364;2022-12-19T07:18:21;96839.81;;;0.77;100.00
6134;BME280;3098;42.678;23.364;2022-12-19T07:20:49;96835.00;;;0.74;100.00
6134;BME280;3098;42.678;23.364;2022-12-19T07:23:17;96828.31;;;0.45;100.00
6134;BME280;3098;42.678;23.364;2022-12-19T07:25:45;96735.19;;;-0.22;100.00
6134;BME280;3098;42.678;23.364;2022-12-19T07:28:14;96715.13;;;-0.21;100.00
6134;BME280;3098;42.678;23.364;2022-12-19T07:30:42;96600.50;;;-0.69;100.00
6134;BME280;3098;42.678;23.364;2022-12-19T07:33:10;96723.22;;;-0.03;100.00
6134;BME280;3098;42.678;23.364;2022-12-19T07:35:41;96798.81;;;0.57;100.00
6134;BME280;3098;42.678;23.364;2022-12-19T07:38:07;96797.00;;;0.65;100.00
6134;BME280;3098;42.678;23.364;2022-12-19T07:40:35;96777.25;;;0.16;100.00
6134;BME280;3098;42.678;23.364;2022-12-19T07:43:03;96824.50;;;0.47;100.00
6134;BME280;3098;42.678;23.364;2022-12-19T07:45:35;96824.94;;;0.77;100.00
6134;BME280;3098;42.678;23.364;2022-12-19T07:48:04;96791.94;;;0.43;100.00
6134;BME280;3098;42.678;23.364;2022-12-19T07:50:32;96644.88;;;-0.36;100.00
6134;BME280;3098;42.678;23.364;2022-12-19T07:53:01;96867.53;;;0.78;100.00
6134;BME280;3098;42.678;23.364;2022-12-19T07:55:29;96885.19;;;0.69;100.00
6134;BME280;3098;42.678;23.364;2022-12-19T07:57:59;96843.69;;;0.20;100.00
6134;BME280;3098;42.678;23.364;2022-12-19T08:00:27;96905.63;;;0.46;100.00
6134;BME280;3098;42.678;23.364;2022-12-19T08:02:57;96879.16;;;0.55;100.00
6134;BME280;3098;42.678;23.364;2022-12-19T08:05:24;96882.13;;;0.46;100.00
6134;BME280;3098;42.678;23.364;2022-12-19T08:07:52;96755.16;;;-0.42;100.00
6134;BME280;3098;42.678;23.364;2022-12-19T08:10:20;96893.25;;;0.68;100.00
6134;BME280;3098;42.678;23.364;2022-12-19T08:12:48;96882.31;;;0.44;100.00
6134;BME280;3098;42.678;23.364;2022-12-19T08:15:15;96882.56;;;0.56;100.00
6134;BME280;3098;42.678;23.364;2022-12-19T08:17:45;96877.84;;;0.32;100.00
6134;BME280;3098;42.678;23.364;2022-12-19T08:20:15;96889.28;;;0.24;100.00
6134;BME280;3098;42.678;23.364;2022-12-19T08:22:43;96888.28;;;0.32;100.00
6134;BME280;3098;42.678;23.364;2022-12-19T08:25:11;96799.66;;;-0.43;100.00
6134;BME280;3098;42.678;23.364;2022-12-19T08:27:39;96892.31;;;0.28;100.00
6134;BME280;3098;42.678;23.364;2022-12-19T08:30:08;96871.00;;;0.24;100.00
6134;BME280;3098;42.678;23.364;2022-12-19T08:32:38;96897.25;;;0.64;100.00
6134;BME280;3098;42.678;23.364;2022-12-19T08:35:07;96893.59;;;0.58;100.00
6134;BME280;3098;42.678;23.364;2022-12-19T08:37:36;96865.66;;;0.52;100.00
6134;BME280;3098;42.678;23.364;2022-12-19T08:40:06;96880.19;;;0.68;100.00
6134;BME280;3098;42.678;23.364;2022-12-19T08:42:33;96896.47;;;0.83;100.00
6134;BME280;3098;42.678;23.364;2022-12-19T08:45:00;96886.06;;;1.02;100.00
6134;BME280;3098;42.678;23.364;2022-12-19T08:47:27;96887.50;;;1.05;100.00
6134;BME280;3098;42.678;23.364;2022-12-19T08:49:55;96872.81;;;1.17;100.00
6134;BME280;3098;42.678;23.364;2022-12-19T08:52:23;96858.31;;;0.95;100.00
6134;BME280;3098;42.678;23.364;2022-12-19T08:54:51;96807.25;;;0.73;100.00
6134;BME280;3098;42.678;23.364;2022-12-19T08:57:19;96869.19;;;1.11;100.00
6134;BME280;3098;42.678;23.364;2022-12-19T08:59:46;96843.66;;;1.07;100.00
6134;BME280;3098;42.678;23.364;2022-12-19T09:02:15;96840.25;;;0.93;100.00
6134;BME280;3098;42.678;23.364;2022-12-19T09:04:42;96872.59;;;1.32;100.00
6134;BME280;3098;42.678;23.364;2022-12-19T09:07:10;96829.78;;;1.13;100.00
6134;BME280;3098;42.678;23.364;2022-12-19T09:09:38;96839.84;;;1.36;100.00
6134;BME280;3098;42.678;23.364;2022-12-19T09:12:08;96847.25;;;1.45;100.00
6134;BME280;3098;42.678;23.364;2022-12-19T09:14:36;96587.75;;;-0.24;100.00
6134;BME280;3098;42.678;23.364;2022-12-19T09:17:04;96843.25;;;1.56;100.00
6134;BME280;3098;42.678;23.364;2022-12-19T09:19:31;96818.88;;;1.55;100.00
6134;BME280;3098;42.678;23.364;2022-12-19T09:21:59;96805.63;;;1.44;100.00
6134;BME280;3098;42.678;23.364;2022-12-19T09:24:28;96787.78;;;1.21;100.00
6134;BME280;3098;42.678;23.364;2022-12-19T09:26:55;96834.78;;;1.54;100.00
6134;BME280;3098;42.678;23.364;2022-12-19T09:29:24;96795.97;;;1.38;100.00
6134;BME280;3098;42.678;23.364;2022-12-19T09:31:52;96829.34;;;1.55;100.00
6134;BME280;3098;42.678;23.364;2022-12-19T09:34:21;96795.78;;;1.39;100.00
6134;BME280;3098;42.678;23.364;2022-12-19T09:36:50;96814.81;;;1.72;100.00
6134;BME280;3098;42.678;23.364;2022-12-19T09:39:19;96661.78;;;0.80;100.00
6134;BME280;3098;42.678;23.364;2022-12-19T09:42:15;96683.91;;;0.71;100.00
6134;BME280;3098;42.678;23.364;2022-12-19T09:45:08;96813.25;;;1.58;100.00
6134;BME280;3098;42.678;23.364;2022-12-19T09:47:42;96726.84;;;1.14;100.00
6134;BME280;3098;42.678;23.364;2022-12-19T09:50:24;96766.59;;;1.42;100.00
6134;BME280;3098;42.678;23.364;2022-12-19T09:52:57;96773.25;;;1.38;100.00
6134;BME280;3098;42.678;23.364;2022-12-19T09:55:30;96803.38;;;1.54;100.00
6134;BME280;3098;42.678;23.364;2022-12-19T09:58:06;96795.75;;;1.52;100.00
6134;BME280;3098;42.678;23.364;2022-12-19T10:00:42;96800.31;;;1.77;100.00
6134;BME280;3098;42.678;23.364;2022-12-19T10:03:19;96788.03;;;1.84;100.00
6134;BME280;3098;42.678;23.364;2022-12-19T10:05:50;96786.59;;;1.88;100.00
6134;BME280;3098;42.678;23.364;2022-12-19T10:08:20;96557.81;;;0.50;100.00
6134;BME280;3098;42.678;23.364;2022-12-19T10:10:59;96679.97;;;1.32;100.00
6134;BME280;3098;42.678;23.364;2022-12-19T10:13:37;96788.69;;;2.17;100.00
6134;BME280;3098;42.678;23.364;2022-12-19T10:16:17;96502.81;;;0.45;100.00
6134;BME280;3098;42.678;23.364;2022-12-19T10:18:50;96772.13;;;2.29;100.00
6134;BME280;3098;42.678;23.364;2022-12-19T10:21:32;96731.75;;;2.06;100.00
6134;BME280;3098;42.678;23.364;2022-12-19T10:27:16;96758.38;;;3.15;100.00
6134;BME280;3098;42.678;23.364;2022-12-19T10:29:56;96724.81;;;3.23;100.00
6134;BME280;3098;42.678;23.364;2022-12-19T10:32:33;96740.72;;;3.65;100.00
6134;BME280;3098;42.678;23.364;2022-12-19T10:35:12;96740.41;;;3.73;100.00
6134;BME280;3098;42.678;23.364;2022-12-19T10:37:46;96754.53;;;3.35;100.00
6134;BME280;3098;42.678;23.364;2022-12-19T10:40:22;96701.56;;;2.84;100.00
6134;BME280;3098;42.678;23.364;2022-12-19T10:42:58;96740.13;;;3.02;100.00
6134;BME280;3098;42.678;23.364;2022-12-19T10:45:30;96733.22;;;2.89;100.00
6134;BME280;3098;42.678;23.364;2022-12-19T10:48:05;96645.81;;;2.03;100.00
6134;BME280;3098;42.678;23.364;2022-12-19T10:50:37;96736.34;;;2.73;100.00
6134;BME280;3098;42.678;23.364;2022-12-19T10:53:09;96734.91;;;2.77;100.00
6134;BME280;3098;42.678;23.364;2022-12-19T10:55:40;96656.91;;;2.29;100.00
6134;BME280;3098;42.678;23.364;2022-12-19T10:58:19;96731.91;;;2.98;100.00
6134;BME280;3098;42.678;23.364;2022-12-19T11:00:58;96699.88;;;2.71;100.00
6134;BME280;3098;42.678;23.364;2022-12-19T11:03:30;96670.41;;;2.26;100.00
6134;BME280;3098;42.678;23.364;2022-12-19T11:05:58;96598.53;;;1.98;100.00
6134;BME280;3098;42.678;23.364;2022-12-19T11:08:29;96727.16;;;2.88;100.00
6134;BME280;3098;42.678;23.364;2022-12-19T11:11:10;96725.38;;;2.82;100.00
6134;BME280;3098;42.678;23.364;2022-12-19T11:13:42;96738.34;;;2.77;100.00
6134;BME280;3098;42.678;23.364;2022-12-19T11:16:11;96684.47;;;2.32;100.00
6134;BME280;3098;42.678;23.364;2022-12-19T11:18:43;96582.91;;;1.85;100.00
6134;BME280;3098;42.678;23.364;2022-12-19T11:21:18;96689.94;;;2.55;100.00
6134;BME280;3098;42.678;23.364;2022-12-19T11:23:50;96733.38;;;2.69;100.00
6134;BME280;3098;42.678;23.364;2022-12-19T11:26:31;96720.09;;;2.64;100.00
6134;BME280;3098;42.678;23.364;2022-12-19T11:29:04;96682.97;;;2.43;100.00
6134;BME280;3098;42.678;23.364;2022-12-19T11:31:42;96705.00;;;2.60;100.00
6134;BME280;3098;42.678;23.364;2022-12-19T11:34:16;96684.78;;;2.42;100.00
6134;BME280;3098;42.678;23.364;2022-12-19T11:36:48;96726.28;;;2.70;100.00
6134;BME280;3098;42.678;23.364;2022-12-19T11:39:21;96667.31;;;2.36;100.00
6134;BME280;3098;42.678;23.364;2022-12-19T11:41:57;96719.56;;;2.80;100.00
6134;BME280;3098;42.678;23.364;2022-12-19T11:44:29;96670.09;;;2.66;100.00
6134;BME280;3098;42.678;23.364;2022-12-19T11:47:07;96694.66;;;2.71;100.00
6134;BME280;3098;42.678;23.364;2022-12-19T11:49:44;96716.16;;;2.80;100.00
6134;BME280;3098;42.678;23.364;2022-12-19T11:52:19;96710.19;;;2.91;100.00
6134;BME280;3098;42.678;23.364;2022-12-19T11:54:55;96511.56;;;1.46;100.00
6134;BME280;3098;42.678;23.364;2022-12-19T11:57:24;96667.69;;;2.40;100.00
6134;BME280;3098;42.678;23.364;2022-12-19T11:59:52;96715.06;;;2.87;100.00
6134;BME280;3098;42.678;23.364;2022-12-19T12:02:39;96692.22;;;2.70;100.00
6134;BME280;3098;42.678;23.364;2022-12-19T12:05:26;96611.09;;;2.14;100.00
6134;BME280;3098;42.678;23.364;2022-12-19T12:11:24;96681.38;;;2.42;100.00
6134;BME280;3098;42.678;23.364;2022-12-19T12:14:16;96680.75;;;2.46;100.00
6134;BME280;3098;42.678;23.364;2022-12-19T12:17:23;96714.25;;;2.38;100.00
6134;BME280;3098;42.678;23.364;2022-12-19T12:20:14;96712.63;;;2.37;100.00
6134;BME280;3098;42.678;23.364;2022-12-19T12:23:07;96621.53;;;1.89;100.00
6134;BME280;3098;42.678;23.364;2022-12-19T12:25:55;96523.50;;;1.36;100.00
6134;BME280;3098;42.678;23.364;2022-12-19T12:28:48;96623.25;;;2.02;100.00
6134;BME280;3098;42.678;23.364;2022-12-19T12:31:37;96719.19;;;2.52;100.00
6134;BME280;3098;42.678;23.364;2022-12-19T12:37:21;96689.44;;;2.40;100.00
6134;BME280;3098;42.678;23.364;2022-12-19T12:40:09;96664.97;;;2.28;100.00
6134;BME280;3098;42.678;23.364;2022-12-19T12:42:50;96579.47;;;1.59;100.00
6134;BME280;3098;42.678;23.364;2022-12-19T12:45:22;96734.22;;;2.63;100.00
6134;BME280;3098;42.678;23.364;2022-12-19T12:47:52;96726.41;;;2.57;100.00
6134;BME280;3098;42.678;23.364;2022-12-19T12:50:23;96727.69;;;2.72;100.00
6134;BME280;3098;42.678;23.364;2022-12-19T12:53:06;96732.50;;;2.75;100.00
6134;BME280;3098;42.678;23.364;2022-12-19T12:55:39;96715.13;;;2.81;100.00
6134;BME280;3098;42.678;23.364;2022-12-19T12:58:42;96554.44;;;2.01;100.00
6134;BME280;3098;42.678;23.364;2022-12-19T13:01:13;96639.22;;;2.50;100.00
6134;BME280;3098;42.678;23.364;2022-12-19T13:03:49;96713.34;;;3.00;100.00
6134;BME280;3098;42.678;23.364;2022-12-19T13:06:24;96704.16;;;2.90;100.00
6134;BME280;3098;42.678;23.364;2022-12-19T13:08:54;96692.03;;;2.71;100.00
6134;BME280;3098;42.678;23.364;2022-12-19T13:11:37;96723.88;;;2.93;100.00
6134;BME280;3098;42.678;23.364;2022-12-19T13:14:47;96712.66;;;2.86;100.00
6134;BME280;3098;42.678;23.364;2022-12-19T13:17:24;96718.53;;;2.81;100.00
6134;BME280;3098;42.678;23.364;2022-12-19T13:20:40;96714.75;;;2.77;100.00
6134;BME280;3098;42.678;23.364;2022-12-19T13:23:31;96607.56;;;2.02;100.00
6134;BME280;3098;42.678;23.364;2022-12-19T13:26:00;96731.94;;;2.67;100.00
6134;BME280;3098;42.678;23.364;2022-12-19T13:28:41;96711.91;;;2.54;100.00
6134;BME280;3098;42.678;23.364;2022-12-19T13:31:16;96713.19;;;2.45;100.00
6134;BME280;3098;42.678;23.364;2022-12-19T13:33:45;96756.94;;;2.69;100.00
6134;BME280;3098;42.678;23.364;2022-12-19T13:36:44;96749.94;;;2.63;100.00
6134;BME280;3098;42.678;23.364;2022-12-19T13:39:32;96694.94;;;2.32;100.00
6134;BME280;3098;42.678;23.364;2022-12-19T13:42:10;96703.97;;;2.36;100.00
6134;BME280;3098;42.678;23.364;2022-12-19T13:45:02;96772.72;;;2.63;100.00
6134;BME280;3098;42.678;23.364;2022-12-19T13:47:34;96701.63;;;2.28;100.00